Time;durP1;ratioP1;P1;durP2;ratioP2;P2;SDS_P1;SDS_P2;PMS_P1;PMS_P2;Temp;Humidity;BMP_temperature;BMP_pressure;BME280_temperature;BME280_humidity;BME280_pressure;Samples;Min_cycle;Max_cycle;Signal;HPM_P1;HPM_P2
2023/08/16 00:03:00;;;;;;;;;;;;;;;14.25;88.05078;102067.5;;;;-82
2023/08/16 00:05:24;;;;;;;6.5;3.8;;;;;;;;;;;;;-80
2023/08/16 00:07:53;;;;;;;;;;;;;;;14.21;90.21387;102064.5;;;;-80
2023/08/16 00:12:48;;;;;;;;;;;;;;;14.15;91.32422;102063.1;;;;-80
2023/08/16 00:17:54;;;;;;;;;;;;;;;14.09;89.2998;102064.9;;;;-80
2023/08/16 00:22:47;;;;;;;;;;;;;;;14.06;92.30762;102067.7;;;;-81
2023/08/16 00:28:13;;;;;;;;;;;;;;;;;;;;;
2023/08/16 00:32:50;;;;;;;;;;;;;;;13.96;89.2627;102067.4;;;;-78
2023/08/16 00:35:38;;;;;;;7.6;4.2;;;;;;;;;;;;;-80
2023/08/16 00:37:52;;;;;;;;;;;;;;;13.93;88.28809;102062.1;;;;-80
2023/08/16 00:51:39;;;;;;;;;;;;;;;13.86;93.87598;102067;;;;-85
2023/08/16 01:05:46;;;;;;;6.9;4;;;;;;;;;;;;;-84
2023/08/16 01:06:41;;;;;;;;;;;;;;;13.79;93.67188;102080.5;;;;-85
2023/08/16 01:16:41;;;;;;;;;;;;;;;13.79;96.125;102090.7;;;;-83
2023/08/16 01:21:53;;;;;;;;;;;;;;;13.71;92.43555;102096.2;;;;-84
2023/08/16 01:26:53;;;;;;;;;;;;;;;;;;;;;
2023/08/16 01:31:17;;;;;;;;;;;;;;;13.68;89.85059;102103.5;;;;-75
2023/08/16 01:35:40;;;;;;;8.7;5.4;;;;;;;;;;;;;-74
2023/08/16 01:36:17;;;;;;;;;;;;;;;13.66;88.61328;102108.4;;;;-74
2023/08/16 01:41:17;;;;;;;;;;;;;;;13.67;93.65625;102119.4;;;;-81
2023/08/16 01:46:17;;;;;;;;;;;;;;;13.71;97.07324;102116.8;;;;-82
2023/08/16 01:51:24;;;;;;;;;;;;;;;13.68;93.26074;102119.2;;;;-80
2023/08/16 01:56:18;;;;;;;;;;;;;;;13.62;90.11523;102122.8;;;;-81
2023/08/16 02:01:26;;;;;;;;;;;;;;;13.57;90.29492;102123.9;;;;-80
2023/08/16 02:05:53;;;;;;;;;;;;;;;;;;;;;
2023/08/16 02:06:15;;;;;;;;;;;;;;;13.55;88.72266;102126.7;;;;-80
2023/08/16 02:11:12;;;;;;;;;;;;;;;13.5;89.3916;102134.2;;;;-80
2023/08/16 02:16:12;;;;;;;;;;;;;;;13.45;90.49121;102127.9;;;;-80
2023/08/16 02:21:18;;;;;;;;;;;;;;;13.37;88.91016;102120.1;;;;-79
2023/08/16 02:26:25;;;;;;;;;;;;;;;;;;;;;
2023/08/16 02:31:23;;;;;;;;;;;;;;;13.28;96.5127;102121.9;;;;-81
2023/08/16 02:35:34;;;;;;;7.5;4.8;;;;;;;;;;;;;-80
2023/08/16 02:36:15;;;;;;;;;;;;;;;13.16;98.41309;102123.3;;;;-80
2023/08/16 02:41:12;;;;;;;;;;;;;;;13.01;93.28613;102122.2;;;;-80
2023/08/16 02:46:16;;;;;;;;;;;;;;;12.93;90.87402;102127.5;;;;-80
2023/08/16 02:51:12;;;;;;;;;;;;;;;12.91;94.4707;102128.7;;;;-81
2023/08/16 02:56:14;;;;;;;;;;;;;;;12.9;93.37207;102135.2;;;;-81
2023/08/16 03:01:24;;;;;;;;;;;;;;;12.87;91.72461;102138;;;;-81
2023/08/16 03:05:49;;;;;;;5.9;4.1;;;;;;;;;;;;;-82
2023/08/16 03:06:24;;;;;;;;;;;;;;;12.82;91.8252;102133.1;;;;-80
2023/08/16 03:11:15;;;;;;;;;;;;;;;12.92;100;102141.7;;;;-79
2023/08/16 03:16:12;;;;;;;;;;;;;;;12.99;100;102139.7;;;;-79
2023/08/16 03:21:12;;;;;;;;;;;;;;;13.02;100;102143.3;;;;-79
2023/08/16 03:26:13;;;;;;;;;;;;;;;12.98;100;102145;;;;-79
2023/08/16 03:31:14;;;;;;;;;;;;;;;12.91;100;102137.7;;;;-79
2023/08/16 03:35:38;;;;;;;7.5;5.2;;;;;;;;;;;;;-78
2023/08/16 03:36:16;;;;;;;;;;;;;;;12.84;100;102133.5;;;;-80
2023/08/16 03:41:15;;;;;;;;;;;;;;;12.78;100;102130.4;;;;-81
2023/08/16 03:46:13;;;;;;;;;;;;;;;12.7;98.36523;102143.6;;;;-80
2023/08/16 03:51:13;;;;;;;;;;;;;;;12.7;99.54785;102143.8;;;;-81
2023/08/16 03:56:17;;;;;;;;;;;;;;;12.63;97.44238;102151.3;;;;-79
2023/08/16 04:01:12;;;;;;;;;;;;;;;12.62;98.17188;102149.5;;;;-80
2023/08/16 04:05:43;;;;;;;6.1;4.4;;;;;;;;;;;;;-80
2023/08/16 04:06:15;;;;;;;;;;;;;;;12.63;99.83008;102150.7;;;;-79
2023/08/16 04:11:18;;;;;;;;;;;;;;;12.66;100;102152.7;;;;-79
2023/08/16 04:16:13;;;;;;;;;;;;;;;12.68;100;102148.2;;;;-80
2023/08/16 04:21:12;;;;;;;;;;;;;;;12.68;99.26563;102149;;;;-78
2023/08/16 04:26:13;;;;;;;;;;;;;;;12.7;100;102151.5;;;;-79
2023/08/16 04:31:16;;;;;;;;;;;;;;;12.71;95.0918;102153.2;;;;-80
2023/08/16 04:35:43;;;;;;;6.2;3.8;;;;;;;;;;;;;-79
2023/08/16 04:36:21;;;;;;;;;;;;;;;12.75;93.33887;102150;;;;-80
2023/08/16 04:41:12;;;;;;;;;;;;;;;12.87;100;102141.7;;;;-80
2023/08/16 04:46:14;;;;;;;;;;;;;;;12.99;100;102146.3;;;;-77
2023/08/16 04:51:22;;;;;;;;;;;;;;;13.08;100;102152.3;;;;-78
2023/08/16 04:56:19;;;;;;;;;;;;;;;13.12;100;102157.4;;;;-79
2023/08/16 05:01:24;;;;;;;;;;;;;;;13.15;100;102159.3;;;;-78
2023/08/16 05:05:45;;;;;;;5.3;3.7;;;;;;;;;;;;;-80
2023/08/16 05:06:16;;;;;;;;;;;;;;;12.77;97.9834;102095.7;;;;-80
2023/08/16 05:11:16;;;;;;;;;;;;;;;13.22;99.64355;102167.2;;;;-80
2023/08/16 05:16:22;;;;;;;;;;;;;;;13.25;99.00781;102167.5;;;;-80
2023/08/16 05:26:16;;;;;;;;;;;;;;;13.39;99.61621;102178.4;;;;-79
2023/08/16 05:31:16;;;;;;;;;;;;;;;13.48;100;102177.9;;;;-79
2023/08/16 05:35:47;;;;;;;7.1;4.6;;;;;;;;;;;;;-79
2023/08/16 05:36:12;;;;;;;;;;;;;;;13.56;98.99902;102181.4;;;;-81
2023/08/16 05:41:19;;;;;;;;;;;;;;;13.74;100;102174.5;;;;-81
2023/08/16 05:46:23;;;;;;;;;;;;;;;14.08;100;102175.1;;;;-82
2023/08/16 05:51:14;;;;;;;;;;;;;;;14.63;100;102180.9;;;;-81
2023/08/16 05:56:21;;;;;;;;;;;;;;;15.87;100;102185.5;;;;-78
2023/08/16 06:01:21;;;;;;;;;;;;;;;17.22;94.71094;102183.4;;;;-83
2023/08/16 06:08:55;;;;;;;;;;;;;;;18.46;87.86816;102194.6;;;;-80
2023/08/16 06:13:56;;;;;;;;;;;;;;;17.75;88.44434;102192.9;;;;-79
2023/08/16 06:18:55;;;;;;;;;;;;;;;17.46;89.75684;102197.5;;;;-80
2023/08/16 06:23:56;;;;;;;;;;;;;;;17.56;90.39355;102199.2;;;;-81
2023/08/16 06:28:55;;;;;;;;;;;;;;;17.45;90.11133;102179.3;;;;-81
2023/08/16 06:33:54;;;;;;;;;;;;;;;17.59;90.77051;102202.4;;;;-80
2023/08/16 06:35:55;;;;;;;9.1;4.9;;;;;;;;;;;;;-81
2023/08/16 06:39:00;;;;;;;;;;;;;;;17.74;90.47461;102201;;;;-80
2023/08/16 06:43:57;;;;;;;;;;;;;;;17.88;90.11035;102205.7;;;;-80
2023/08/16 06:48:55;;;;;;;;;;;;;;;17.83;91.14355;102202.3;;;;-79
2023/08/16 06:53:57;;;;;;;;;;;;;;;17.91;91.39453;102213.1;;;;-81
2023/08/16 06:58:58;;;;;;;;;;;;;;;18.26;90.83887;102220.2;;;;-81
2023/08/16 07:03:56;;;;;;;;;;;;;;;18.69;89.21777;102232;;;;-82
2023/08/16 07:06:02;;;;;;;10.1;5.1;;;;;;;;;;;;;-81
2023/08/16 07:08:54;;;;;;;;;;;;;;;18.93;88.21875;102225.9;;;;-81
2023/08/16 07:13:54;;;;;;;;;;;;;;;19.76;85.54004;102229.9;;;;-80
2023/08/16 07:18:55;;;;;;;;;;;;;;;20.47;81.41504;102229.7;;;;-83
2023/08/16 07:23:54;;;;;;;;;;;;;;;20.15;83.32227;102233.1;;;;-81
2023/08/16 07:28:54;;;;;;;;;;;;;;;20.02;82.24805;102233.4;;;;-80
2023/08/16 07:33:57;;;;;;;;;;;;;;;20.65;81.2666;102238.2;;;;-82
2023/08/16 07:39:01;;;;;;;;;;;;;;;21.05;78.78809;102236.5;;;;-83
2023/08/16 07:43:09;;;;;;;;;;;;;;;21.09;77.7627;102245.8;;;;-82
2023/08/16 07:47:59;;;;;;;;;;;;;;;21.22;75.90234;102250.7;;;;-80
2023/08/16 07:53:00;;;;;;;;;;;;;;;21.19;77.09863;102255;;;;-81
2023/08/16 07:58:04;;;;;;;;;;;;;;;21.11;76.45117;102260.3;;;;-81
2023/08/16 08:02:59;;;;;;;;;;;;;;;21.27;74.33105;102259.2;;;;-82
2023/08/16 08:06:13;;;;;;;8.4;2.5;;;;;;;;;;;;;-82
2023/08/16 08:08:00;;;;;;;;;;;;;;;21.57;71.61816;102265.5;;;;-80
2023/08/16 08:12:58;;;;;;;;;;;;;;;21.47;70.50977;102266.3;;;;-81
2023/08/16 08:17:58;;;;;;;;;;;;;;;21.7;70.56836;102273.8;;;;-82
2023/08/16 08:22:58;;;;;;;;;;;;;;;21.95;68.36426;102277;;;;-81
2023/08/16 08:28:03;;;;;;;;;;;;;;;22.27;65.91406;102275.2;;;;-80
2023/08/16 08:33:00;;;;;;;;;;;;;;;22.53;62.59473;102283.3;;;;-82
2023/08/16 08:36:09;;;;;;;4.4;1.5;;;;;;;;;;;;;-81
2023/08/16 08:37:58;;;;;;;;;;;;;;;22.74;63.84668;102285.7;;;;-82
2023/08/16 08:43:05;;;;;;;;;;;;;;;22.69;59.92773;102285.3;;;;-80
2023/08/16 08:48:12;;;;;;;;;;;;;;;22.85;59.78906;102281.6;;;;-81
2023/08/16 08:53:00;;;;;;;;;;;;;;;23.15;59.43945;102281.9;;;;-81
2023/08/16 08:58:01;;;;;;;;;;;;;;;23.57;57.72852;102282.5;;;;-81
2023/08/16 09:03:09;;;;;;;;;;;;;;;24.05;55.0332;102288.4;;;;-79
2023/08/16 09:06:11;;;;;;;4;1.1;;;;;;;;;;;;;-82
2023/08/16 09:08:05;;;;;;;;;;;;;;;24.23;53.92773;102293.3;;;;-80
2023/08/16 09:13:00;;;;;;;;;;;;;;;24.53;52.99707;102290.3;;;;-82
2023/08/16 09:18:08;;;;;;;;;;;;;;;24.68;49.93652;102286.6;;;;-81
2023/08/16 09:22:58;;;;;;;;;;;;;;;24.94;50.23145;102291.6;;;;-81
2023/08/16 09:33:17;;;;;;;;;;;;;;;24.95;49.05566;102280.9;;;;-80
2023/08/16 09:36:18;;;;;;;3.4;1.1;;;;;;;;;;;;;-81
2023/08/16 09:38:06;;;;;;;;;;;;;;;25.01;49.00391;102281.2;;;;-80
2023/08/16 09:50:49;;;;;;;;;;;;;;;25.91;46.45313;102273.5;;;;-80
2023/08/16 09:55:52;;;;;;;;;;;;;;;26.24;47.58789;102268;;;;-80
2023/08/16 10:05:54;;;;;;;;;;;;;;;26.42;45.6377;102267.5;;;;-80
2023/08/16 10:06:26;;;;;;;2.9;1.1;;;;;;;;;;;;;-82
2023/08/16 10:10:50;;;;;;;;;;;;;;;26.56;44.51367;102265.2;;;;-80
2023/08/16 10:15:51;;;;;;;;;;;;;;;26.73;43.83496;102257.9;;;;-81
2023/08/16 10:20:53;;;;;;;;;;;;;;;26.74;42.88477;102264.1;;;;-81
2023/08/16 10:25:53;;;;;;;;;;;;;;;26.32;44.23633;102272.6;;;;-81
2023/08/16 10:30:56;;;;;;;;;;;;;;;26.33;46.88965;102273.3;;;;-79
2023/08/16 10:35:51;;;;;;;;;;;;;;;26.57;44.45801;102270.2;;;;-81
2023/08/16 10:36:26;;;;;;;4.7;1.2;;;;;;;;;;;;;-78
2023/08/16 10:41:00;;;;;;;;;;;;;;;27;43.7334;102281.5;;;;-80
2023/08/16 10:45:52;;;;;;;;;;;;;;;27.24;42.6875;102279.5;;;;-81
2023/08/16 10:50:54;;;;;;;;;;;;;;;27.3;41.68262;102280.1;;;;-81
2023/08/16 10:55:55;;;;;;;;;;;;;;;26.98;44.28809;102280.4;;;;-79
2023/08/16 11:00:59;;;;;;;;;;;;;;;27.1;42.33789;102284.4;;;;-81
2023/08/16 11:06:00;;;;;;;;;;;;;;;27.16;44.43359;102280.5;;;;-82
2023/08/16 11:06:34;;;;;;;2.6;1.1;;;;;;;;;;;;;-81
2023/08/16 11:10:52;;;;;;;;;;;;;;;27.36;42.74609;102277.4;;;;-79
2023/08/16 11:15:49;;;;;;;;;;;;;;;27.85;41.38379;102280.1;;;;-81
2023/08/16 11:20:49;;;;;;;;;;;;;;;28;43.36426;102285.8;;;;-80
2023/08/16 11:25:49;;;;;;;;;;;;;;;28.02;42.0752;102285.5;;;;-78
2023/08/16 11:30:58;;;;;;;;;;;;;;;27.75;43.24805;102279.4;;;;-79
2023/08/16 11:35:56;;;;;;;;;;;;;;;27.94;44.33691;102276.1;;;;-81
2023/08/16 11:36:41;;;;;;;4.2;1.8;;;;;;;;;;;;;-79
2023/08/16 11:40:55;;;;;;;;;;;;;;;28.06;42.61426;102277.4;;;;-79
2023/08/16 11:45:54;;;;;;;;;;;;;;;28.21;43.51367;102278.3;;;;-81
2023/08/16 11:50:49;;;;;;;;;;;;;;;28.43;44.54883;102285.4;;;;-78
2023/08/16 11:55:59;;;;;;;;;;;;;;;28.4;47.54688;102277.6;;;;-77
2023/08/16 12:00:53;;;;;;;;;;;;;;;28.26;42.35352;102279.8;;;;-79
2023/08/16 12:05:59;;;;;;;;;;;;;;;28.36;42.95801;102277.3;;;;-81
2023/08/16 12:06:49;;;;;;;4.1;2;;;;;;;;;;;;;-80
2023/08/16 12:10:54;;;;;;;;;;;;;;;28.58;43.22266;102281.2;;;;-80
2023/08/16 12:15:51;;;;;;;;;;;;;;;28.59;42.97949;102271.2;;;;-80
2023/08/16 12:20:53;;;;;;;;;;;;;;;28.89;43.36914;102271.1;;;;-81
2023/08/16 12:25:51;;;;;;;;;;;;;;;29.12;40.61328;102274.8;;;;-81
2023/08/16 12:30:50;;;;;;;;;;;;;;;28.88;42.80859;102263.5;;;;-79
2023/08/16 12:35:53;;;;;;;;;;;;;;;29.22;41.7666;102261.4;;;;-80
2023/08/16 12:36:49;;;;;;;3.9;1.4;;;;;;;;;;;;;-81
2023/08/16 12:40:51;;;;;;;;;;;;;;;29.53;39.65723;102252.7;;;;-78
2023/08/16 12:45:53;;;;;;;;;;;;;;;29.26;39.24805;102253.3;;;;-79
2023/08/16 12:50:50;;;;;;;;;;;;;;;29.47;40.59766;102256.8;;;;-82
2023/08/16 12:55:51;;;;;;;;;;;;;;;29.58;44.34473;102260.3;;;;-80
2023/08/16 13:00:51;;;;;;;;;;;;;;;29.57;38.50195;102247.4;;;;-79
2023/08/16 13:06:05;;;;;;;;;;;;;;;29.65;38.89453;102243.3;;;;-81
2023/08/16 13:06:59;;;;;;;2.9;1.2;;;;;;;;;;;;;-80
2023/08/16 13:10:52;;;;;;;;;;;;;;;29.88;38.31836;102234.2;;;;-81
2023/08/16 13:15:55;;;;;;;;;;;;;;;29.78;37.99414;102239.8;;;;-80
2023/08/16 13:20:49;;;;;;;;;;;;;;;29.82;37.1543;102238.6;;;;-79
2023/08/16 13:25:51;;;;;;;;;;;;;;;30.09;39.22461;102230.9;;;;-80
2023/08/16 13:30:59;;;;;;;;;;;;;;;29.75;37.14844;102233.9;;;;-80
2023/08/16 13:35:55;;;;;;;;;;;;;;;29.88;38.01367;102234.1;;;;-80
2023/08/16 13:40:50;;;;;;;;;;;;;;;30.04;38.40137;102233.2;;;;-78
2023/08/16 13:45:50;;;;;;;;;;;;;;;29.57;37.47266;102219.8;;;;-79
2023/08/16 13:50:50;;;;;;;;;;;;;;;29.74;37.37012;102221.4;;;;-79
2023/08/16 13:55:52;;;;;;;;;;;;;;;29.89;36.91406;102225.7;;;;-77
2023/08/16 14:01:10;;;;;;;;;;;;;;;29.89;37.27734;102233.9;;;;-78
2023/08/16 14:05:51;;;;;;;;;;;;;;;29.89;36.80859;102233.5;;;;-81
2023/08/16 14:07:08;;;;;;;3.2;1.2;;;;;;;;;;;;;-79
2023/08/16 14:10:57;;;;;;;;;;;;;;;29.66;36.73242;102232.7;;;;-80
2023/08/16 14:15:50;;;;;;;;;;;;;;;29.94;37.65527;102229.8;;;;-80
2023/08/16 14:20:50;;;;;;;;;;;;;;;29.62;36.9502;102235;;;;-80
2023/08/16 14:25:53;;;;;;;;;;;;;;;29.73;36.51465;102232.6;;;;-79
2023/08/16 14:30:51;;;;;;;;;;;;;;;29.85;37.49609;102222.5;;;;-81
2023/08/16 14:35:52;;;;;;;;;;;;;;;29.53;38.57031;102226.3;;;;-79
2023/08/16 14:37:11;;;;;;;2.5;0.9;;;;;;;;;;;;;-79
2023/08/16 14:40:52;;;;;;;;;;;;;;;29.65;37.9707;102234.5;;;;-78
2023/08/16 14:45:54;;;;;;;;;;;;;;;29.93;37.7959;102239.5;;;;-80
2023/08/16 14:50:53;;;;;;;;;;;;;;;29.81;37.15332;102246.5;;;;-80
2023/08/16 14:55:52;;;;;;;;;;;;;;;29.77;40.77637;102239.6;;;;-80
2023/08/16 15:00:51;;;;;;;;;;;;;;;29.6;41.29883;102240.5;;;;-79
2023/08/16 15:05:51;;;;;;;;;;;;;;;29.6;40.65625;102242.9;;;;-81
2023/08/16 15:07:21;;;;;;;3.7;1.5;;;;;;;;;;;;;-77
2023/08/16 15:10:52;;;;;;;;;;;;;;;29.41;42.30957;102232.2;;;;-81
2023/08/16 15:16:02;;;;;;;;;;;;;;;;;;;;;
2023/08/16 15:20:52;;;;;;;;;;;;;;;29.28;41.94727;102235.4;;;;-80
2023/08/16 15:25:53;;;;;;;;;;;;;;;29.27;41.12891;102232.2;;;;-81
2023/08/16 15:30:56;;;;;;;;;;;;;;;29.2;41.32031;102225.5;;;;-79
2023/08/16 15:35:53;;;;;;;;;;;;;;;29.37;42.38672;102226.2;;;;-81
2023/08/16 15:37:28;;;;;;;3.7;1.2;;;;;;;;;;;;;-79
2023/08/16 15:40:58;;;;;;;;;;;;;;;29.22;40.19043;102224.6;;;;-80
2023/08/16 15:45:52;;;;;;;;;;;;;;;29.03;40.24316;102224.7;;;;-80
2023/08/16 15:50:49;;;;;;;;;;;;;;;29.1;41.08984;102224.2;;;;-81
2023/08/16 15:55:56;;;;;;;;;;;;;;;29.1;39.99316;102222.9;;;;-80
2023/08/16 16:00:50;;;;;;;;;;;;;;;28.98;40.58887;102217.4;;;;-79
2023/08/16 16:05:51;;;;;;;;;;;;;;;28.88;41.2793;102213.6;;;;-81
2023/08/16 16:07:30;;;;;;;2.4;1.1;;;;;;;;;;;;;-79
2023/08/16 16:10:53;;;;;;;;;;;;;;;28.61;41.52344;102211.1;;;;-80
2023/08/16 16:15:49;;;;;;;;;;;;;;;28.66;40.86328;102206.7;;;;-80
2023/08/16 16:20:49;;;;;;;;;;;;;;;28.27;41.63281;102205.8;;;;-78
2023/08/16 16:25:49;;;;;;;;;;;;;;;28.27;44.89355;102194.9;;;;-80
2023/08/16 16:30:50;;;;;;;;;;;;;;;28.03;43.12402;102204;;;;-79
2023/08/16 16:35:51;;;;;;;;;;;;;;;27.72;43.17578;102193.9;;;;-78
2023/08/16 16:37:35;;;;;;;2.3;1;;;;;;;;;;;;;-79
2023/08/16 16:41:00;;;;;;;;;;;;;;;27.71;43.65137;102199.9;;;;-79
2023/08/16 16:45:51;;;;;;;;;;;;;;;27.34;44.8125;102198.6;;;;-80
2023/08/16 16:50:55;;;;;;;;;;;;;;;27.26;45.94141;102199.4;;;;-79
2023/08/16 16:55:51;;;;;;;;;;;;;;;27.33;47.12207;102205.5;;;;-79
2023/08/16 17:00:50;;;;;;;;;;;;;;;27.18;46.88574;102201.9;;;;-79
2023/08/16 17:06:04;;;;;;;;;;;;;;;27.12;47.12305;102197.2;;;;-79
2023/08/16 17:07:46;;;;;;;3.3;1.1;;;;;;;;;;;;;-80
2023/08/16 17:10:50;;;;;;;;;;;;;;;26.95;47.99902;102194.2;;;;-79
2023/08/16 17:15:51;;;;;;;;;;;;;;;26.73;47.82422;102189.1;;;;-82
2023/08/16 17:20:52;;;;;;;;;;;;;;;26.46;48.31738;102202.9;;;;-80
2023/08/16 17:25:52;;;;;;;;;;;;;;;26.16;48.91016;102198.7;;;;-79
2023/08/16 17:31:00;;;;;;;;;;;;;;;25.84;50.18066;102193;;;;-79
2023/08/16 17:35:51;;;;;;;;;;;;;;;25.63;50.7002;102190.6;;;;-80
2023/08/16 17:37:51;;;;;;;2.8;0.9;;;;;;;;;;;;;-79
2023/08/16 17:40:49;;;;;;;;;;;;;;;25.43;51.4873;102190.8;;;;-79
2023/08/16 17:45:53;;;;;;;;;;;;;;;25.14;52.22559;102196.8;;;;-81
2023/08/16 17:50:57;;;;;;;;;;;;;;;24.9;52.87988;102189.7;;;;-79
2023/08/16 17:55:56;;;;;;;;;;;;;;;24.66;53.58789;102185.6;;;;-81
2023/08/16 18:00:58;;;;;;;;;;;;;;;24.53;54.10156;102181.2;;;;-80
2023/08/16 18:08:00;;;;;;;4.4;1.2;;;;;;;;;;;;;-78
2023/08/16 18:10:37;;;;;;;;;;;;;;;24.04;55.04297;102182.2;;;;-78
2023/08/16 18:15:24;;;;;;;;;;;;;;;23.71;55.92188;102195;;;;-80
2023/08/16 18:20:33;;;;;;;;;;;;;;;23.58;56.41113;102190.4;;;;-79
2023/08/16 18:25:24;;;;;;;;;;;;;;;23.37;57.15234;102199.5;;;;-80
2023/08/16 18:30:25;;;;;;;;;;;;;;;23.22;57.30469;102208;;;;-79
2023/08/16 18:35:26;;;;;;;;;;;;;;;23.05;57.53516;102214.6;;;;-79
2023/08/16 18:38:08;;;;;;;3.5;1.2;;;;;;;;;;;;;-79
2023/08/16 18:40:30;;;;;;;;;;;;;;;22.88;57.13672;102219.5;;;;-80
2023/08/16 18:45:27;;;;;;;;;;;;;;;22.71;57.58398;102221.1;;;;-81
2023/08/16 18:50:30;;;;;;;;;;;;;;;22.6;57.5918;102231.5;;;;-80
2023/08/16 18:55:24;;;;;;;;;;;;;;;22.38;57.73535;102222.3;;;;-81
2023/08/16 19:00:25;;;;;;;;;;;;;;;22.13;58.33301;102230.1;;;;-79
2023/08/16 19:05:24;;;;;;;;;;;;;;;21.89;59.2041;102240.1;;;;-81
2023/08/16 19:08:08;;;;;;;4.1;1.5;;;;;;;;;;;;;-81
2023/08/16 19:10:27;;;;;;;;;;;;;;;21.71;60.09473;102246.9;;;;-80
2023/08/16 19:15:30;;;;;;;;;;;;;;;21.55;60.66602;102240.9;;;;-79
2023/08/16 19:20:25;;;;;;;;;;;;;;;21.42;61.38965;102257.9;;;;-81
2023/08/16 19:25:26;;;;;;;;;;;;;;;21.29;62.75195;102263.1;;;;-80
2023/08/16 19:30:33;;;;;;;;;;;;;;;21.07;64.11133;102275.7;;;;-79
2023/08/16 19:35:24;;;;;;;;;;;;;;;20.94;64.63965;102272.7;;;;-79
2023/08/16 19:38:02;;;;;;;4;1.7;;;;;;;;;;;;;-79
2023/08/16 19:40:28;;;;;;;;;;;;;;;20.82;64.93945;102277.4;;;;-78
2023/08/16 19:45:35;;;;;;;;;;;;;;;20.68;66.56836;102280.6;;;;-79
2023/08/16 19:50:30;;;;;;;;;;;;;;;20.56;67.01563;102283.5;;;;-79
2023/08/16 20:00:26;;;;;;;;;;;;;;;20.38;68.48926;102288.6;;;;-77
2023/08/16 20:05:24;;;;;;;;;;;;;;;20.38;67.59082;102277.3;;;;-77
2023/08/16 20:08:05;;;;;;;4;1.7;;;;;;;;;;;;;-78
2023/08/16 20:10:24;;;;;;;;;;;;;;;20.24;69.56738;102281.6;;;;-78
2023/08/16 20:15:24;;;;;;;;;;;;;;;20.15;69.99609;102281.2;;;;-78
2023/08/16 20:20:24;;;;;;;;;;;;;;;20.04;70.27539;102272.6;;;;-78
2023/08/16 20:25:24;;;;;;;;;;;;;;;19.95;68.8418;102278;;;;-79
2023/08/16 20:30:24;;;;;;;;;;;;;;;19.85;70.84473;102280.8;;;;-78
2023/08/16 20:35:40;;;;;;;;;;;;;;;19.74;71.42773;102272.6;;;;-79
2023/08/16 20:38:08;;;;;;;6.2;2;;;;;;;;;;;;;-78
2023/08/16 20:40:27;;;;;;;;;;;;;;;19.64;71.37891;102276.5;;;;-79
2023/08/16 20:45:31;;;;;;;;;;;;;;;19.51;73.14551;102271.8;;;;-80
2023/08/16 20:50:25;;;;;;;;;;;;;;;19.42;72.84766;102265.9;;;;-80
2023/08/16 20:55:28;;;;;;;;;;;;;;;19.31;75.82715;102272.1;;;;-80
2023/08/16 21:00:31;;;;;;;;;;;;;;;19.23;75.85938;102269.6;;;;-80
2023/08/16 21:10:32;;;;;;;;;;;;;;;19.09;77.70996;102271.5;;;;-79
2023/08/16 21:15:24;;;;;;;;;;;;;;;19.03;76.71777;102272.9;;;;-79
2023/08/16 21:20:34;;;;;;;;;;;;;;;18.97;75.66797;102275.8;;;;-79
2023/08/16 21:25:31;;;;;;;;;;;;;;;18.85;76.04297;102285.5;;;;-81
2023/08/16 21:30:30;;;;;;;;;;;;;;;18.8;77.30957;102284.6;;;;-80
2023/08/16 21:35:31;;;;;;;;;;;;;;;18.67;78.88867;102281.9;;;;-81
2023/08/16 21:38:15;;;;;;;8.1;2.5;;;;;;;;;;;;;-81
2023/08/16 21:40:29;;;;;;;;;;;;;;;18.53;80.67773;102283.1;;;;-81
2023/08/16 21:55:34;;;;;;;;;;;;;;;18.29;82.49023;102297.6;;;;-81
2023/08/16 22:00:36;;;;;;;;;;;;;;;18.22;83.03223;102298.2;;;;-81
2023/08/16 22:05:46;;;;;;;;;;;;;;;18.14;84.58008;102302.7;;;;-81
2023/08/16 22:10:41;;;;;;;;;;;;;;;18.11;82.86328;102306.3;;;;-82
2023/08/16 22:20:43;;;;;;;;;;;;;;;18.06;84.96777;102297.8;;;;-80
2023/08/16 22:25:28;;;;;;;;;;;;;;;17.96;85.44434;102303.7;;;;-82
2023/08/16 22:30:29;;;;;;;;;;;;;;;17.95;84.57715;102301.3;;;;-80
2023/08/16 22:35:45;;;;;;;;;;;;;;;17.71;83.96875;102262.5;;;;-83
2023/08/16 22:38:44;;;;;;;6.4;2.4;;;;;;;;;;;;;-80
2023/08/16 22:40:29;;;;;;;;;;;;;;;17.84;86.20605;102302.8;;;;-78
2023/08/16 22:55:42;;;;;;;;;;;;;;;17.7;85.33887;102299.3;;;;-81
2023/08/16 23:00:40;;;;;;;;;;;;;;;17.65;85.07031;102291.2;;;;-80
2023/08/16 23:05:45;;;;;;;;;;;;;;;17.57;85.83887;102294.1;;;;-82
2023/08/16 23:08:27;;;;;;;7.3;2.4;;;;;;;;;;;;;-80
2023/08/16 23:10:46;;;;;;;;;;;;;;;17.48;86.62012;102290.3;;;;-82
2023/08/16 23:15:40;;;;;;;;;;;;;;;17.38;82.75098;102291.3;;;;-81
2023/08/16 23:20:42;;;;;;;;;;;;;;;17.36;86.02441;102282.5;;;;-80
2023/08/16 23:25:44;;;;;;;;;;;;;;;17.38;83.85156;102287.9;;;;-81
2023/08/16 23:30:41;;;;;;;;;;;;;;;17.3;86.125;102289.1;;;;-79
2023/08/16 23:35:40;;;;;;;;;;;;;;;17.15;84.20117;102280.4;;;;-78
2023/08/16 23:38:35;;;;;;;6.8;2.7;;;;;;;;;;;;;-80
2023/08/16 23:40:44;;;;;;;;;;;;;;;17.19;85.18359;102300.6;;;;-79
2023/08/16 23:45:47;;;;;;;;;;;;;;;17.2;87.60742;102298.4;;;;-82
2023/08/16 23:50:47;;;;;;;;;;;;;;;17.21;87.7793;102293.8;;;;-82
2023/08/16 23:55:41;;;;;;;;;;;;;;;17.19;87.56152;102280.3;;;;-80
